createdAt,value
2022-12-11T00:03:27.777Z,22.70
2022-12-11T00:08:54.032Z,23.17
2022-12-11T00:13:55.678Z,26.10
2022-12-11T00:18:57.201Z,23.13
2022-12-11T00:23:58.846Z,25.63
2022-12-11T00:29:00.980Z,23.93
2022-12-11T00:34:02.816Z,27.87
2022-12-11T00:39:04.944Z,24.07
2022-12-11T00:44:06.560Z,25.20
2022-12-11T00:49:08.105Z,24.80
2022-12-11T00:54:09.816Z,24.30
2022-12-11T00:59:11.514Z,24.97
2022-12-11T01:04:13.124Z,26.90
2022-12-11T01:09:32.869Z,25.97
2022-12-11T01:14:34.379Z,25.23
2022-12-11T01:19:36.023Z,28.37
2022-12-11T01:24:38.181Z,24.73
2022-12-11T01:29:39.716Z,28.57
2022-12-11T01:34:41.860Z,31.57
2022-12-11T01:39:43.464Z,31.33
2022-12-11T01:44:44.999Z,30.67
2022-12-11T01:49:46.608Z,28.33
2022-12-11T01:54:48.401Z,28.03
2022-12-11T01:59:50.052Z,28.27
2022-12-11T02:04:51.647Z,31.00
2022-12-11T02:09:53.189Z,27.13
2022-12-11T02:15:07.017Z,24.33
2022-12-11T02:20:18.926Z,29.13
2022-12-11T02:26:05.878Z,31.23
2022-12-11T02:31:21.793Z,28.47
2022-12-11T02:36:25.486Z,28.40
2022-12-11T02:41:27.272Z,29.70
2022-12-11T02:46:29.638Z,28.30
2022-12-11T02:51:35.782Z,28.90
2022-12-11T02:56:43.475Z,31.77
2022-12-11T03:01:46.312Z,31.90
2022-12-11T03:06:51.586Z,27.33
2022-12-11T03:11:53.266Z,30.57
2022-12-11T03:17:05.908Z,28.83
2022-12-11T03:22:17.233Z,28.13
2022-12-11T03:27:34.963Z,30.50
2022-12-11T03:32:39.548Z,29.83
2022-12-11T03:37:42.238Z,29.93
2022-12-11T03:42:45.628Z,26.90
2022-12-11T03:47:47.979Z,27.67
2022-12-11T03:52:50.497Z,29.70
2022-12-11T03:57:52.310Z,31.17
2022-12-11T04:03:16.587Z,34.87
2022-12-11T04:08:21.929Z,33.37
2022-12-11T04:13:23.611Z,27.67
2022-12-11T04:18:43.533Z,31.13
2022-12-11T04:24:03.418Z,25.63
2022-12-11T04:29:04.939Z,29.53
2022-12-11T04:34:06.593Z,24.67
2022-12-11T04:39:09.219Z,24.20
2022-12-11T04:44:10.809Z,20.57
2022-12-11T04:49:12.603Z,25.17
2022-12-11T04:54:14.134Z,23.47
2022-12-11T04:59:15.809Z,27.07
2022-12-11T05:04:17.468Z,18.60
2022-12-11T05:09:19.099Z,18.30
2022-12-11T05:14:20.875Z,23.63
2022-12-11T05:19:22.465Z,19.67
2022-12-11T05:24:24.104Z,20.20
2022-12-11T05:29:25.788Z,20.83
2022-12-11T05:34:27.315Z,23.47
2022-12-11T05:39:28.921Z,24.00
2022-12-11T05:44:30.455Z,19.60
2022-12-11T05:49:32.011Z,25.97
2022-12-11T05:54:33.566Z,32.70
2022-12-11T05:59:35.150Z,29.80
2022-12-11T06:04:36.664Z,34.30
2022-12-11T06:09:38.356Z,33.07
2022-12-11T06:14:41.026Z,32.43
2022-12-11T06:19:42.663Z,37.27
2022-12-11T06:24:44.261Z,36.33
2022-12-11T06:29:46.579Z,38.33
2022-12-11T06:34:48.182Z,38.57
2022-12-11T06:39:49.812Z,41.77
2022-12-11T06:44:51.469Z,34.70
2022-12-11T06:49:53.969Z,35.07
2022-12-11T06:54:56.165Z,34.73
2022-12-11T06:59:57.704Z,33.67
2022-12-11T07:04:59.233Z,32.77
2022-12-11T07:10:07.732Z,35.17
2022-12-11T07:15:10.738Z,37.10
2022-12-11T07:20:12.565Z,36.43
2022-12-11T07:25:14.657Z,42.58
2022-12-11T07:30:16.384Z,35.17
2022-12-11T07:35:17.890Z,31.30
2022-12-11T07:40:19.517Z,33.93
2022-12-11T07:45:21.048Z,32.10
2022-12-11T07:50:22.814Z,34.87
2022-12-11T07:55:24.334Z,30.87
2022-12-11T08:00:26.090Z,36.77
2022-12-11T08:05:27.637Z,35.27
2022-12-11T08:10:29.405Z,29.77
2022-12-11T08:15:30.927Z,35.60
2022-12-11T08:20:32.956Z,35.10
2022-12-11T08:25:34.498Z,33.97
2022-12-11T08:30:38.688Z,29.03
2022-12-11T08:35:41.807Z,34.97
2022-12-11T08:40:43.455Z,35.33
2022-12-11T08:45:46.612Z,38.67
2022-12-11T08:50:48.975Z,34.00
2022-12-11T08:55:50.505Z,31.43
2022-12-11T09:00:52.175Z,32.20
2022-12-11T09:05:53.764Z,33.17
2022-12-11T09:10:55.406Z,34.37
2022-12-11T09:15:57.856Z,37.53
2022-12-11T09:21:04.528Z,32.47
2022-12-11T09:26:07.673Z,30.10
2022-12-11T09:31:17.412Z,38.43
2022-12-11T09:36:19.443Z,33.90
2022-12-11T09:41:20.881Z,32.60
2022-12-11T09:46:24.639Z,33.10
2022-12-11T09:51:28.324Z,29.33
2022-12-11T09:56:34.503Z,32.17
2022-12-11T10:01:51.754Z,34.63
2022-12-11T10:07:09.702Z,28.27
2022-12-11T10:12:30.575Z,30.47
2022-12-11T10:17:34.446Z,29.50
2022-12-11T10:22:36.125Z,31.90
2022-12-11T10:27:39.641Z,26.50
2022-12-11T10:32:51.206Z,32.13
2022-12-11T10:37:57.177Z,30.43
2022-12-11T10:42:59.000Z,27.90
2022-12-11T10:48:05.480Z,27.67
2022-12-11T10:53:17.507Z,25.43
2022-12-11T10:58:24.304Z,26.40
2022-12-11T11:03:27.417Z,23.80
2022-12-11T11:08:39.783Z,26.77
2022-12-11T11:13:41.467Z,26.23
2022-12-11T11:18:51.037Z,28.33
2022-12-11T11:23:53.837Z,28.10
2022-12-11T11:28:56.731Z,26.33
2022-12-11T11:34:10.453Z,23.70
2022-12-11T11:39:11.914Z,21.27
2022-12-11T11:44:16.185Z,25.80
2022-12-11T11:49:17.654Z,27.87
2022-12-11T11:54:40.074Z,23.43
2022-12-11T11:59:47.195Z,21.53
2022-12-11T12:04:51.324Z,21.33
2022-12-11T12:10:08.784Z,20.33
2022-12-11T12:15:18.755Z,18.03
2022-12-11T12:20:38.549Z,19.37
2022-12-11T12:26:06.434Z,19.50
2022-12-11T12:31:11.130Z,23.60
2022-12-11T12:36:38.833Z,20.57
2022-12-11T12:42:08.166Z,17.93
2022-12-11T12:47:13.972Z,16.07
2022-12-11T12:52:18.867Z,19.43
2022-12-11T12:57:21.311Z,20.23
2022-12-11T13:02:22.958Z,16.23
2022-12-11T13:07:30.795Z,17.40
2022-12-11T13:12:44.843Z,18.63
2022-12-11T13:17:46.565Z,27.37
2022-12-11T13:22:52.842Z,23.53
2022-12-11T13:28:08.259Z,22.83
2022-12-11T13:33:18.304Z,20.10
2022-12-11T13:38:20.779Z,19.27
2022-12-11T13:43:27.901Z,21.37
2022-12-11T13:48:34.261Z,18.63
2022-12-11T13:53:35.856Z,20.37
2022-12-11T13:58:40.292Z,20.37
2022-12-11T14:04:03.251Z,19.40
2022-12-11T14:09:06.148Z,20.20
2022-12-11T14:14:26.267Z,22.70
2022-12-11T14:19:28.323Z,18.27
2022-12-11T14:24:31.205Z,18.03
2022-12-11T14:29:33.764Z,20.10
2022-12-11T14:34:44.383Z,17.63
2022-12-11T14:39:59.626Z,15.33
2022-12-11T14:45:09.510Z,16.17
2022-12-11T14:50:41.046Z,14.70
2022-12-11T14:55:42.947Z,16.10
2022-12-11T15:00:44.706Z,12.93
2022-12-11T15:05:52.592Z,11.07
2022-12-11T15:11:04.998Z,12.20
2022-12-11T15:16:07.722Z,12.97
2022-12-11T15:21:11.776Z,12.03
2022-12-11T15:26:13.464Z,13.90
2022-12-11T15:31:29.942Z,15.00
2022-12-11T15:36:32.649Z,12.63
2022-12-11T15:41:34.859Z,14.93
2022-12-11T15:46:37.136Z,13.03
2022-12-11T15:51:42.819Z,15.13
2022-12-11T15:56:45.253Z,13.17
2022-12-11T16:01:46.937Z,17.63
2022-12-11T16:06:48.559Z,12.73
2022-12-11T16:11:50.173Z,13.43
2022-12-11T16:16:51.989Z,14.63
2022-12-11T16:21:57.332Z,14.30
2022-12-11T16:26:59.103Z,14.17
2022-12-11T16:32:00.781Z,16.30
2022-12-11T16:37:02.359Z,16.33
2022-12-11T16:42:06.920Z,17.43
2022-12-11T16:47:08.557Z,19.83
2022-12-11T16:52:10.756Z,20.17
2022-12-11T16:57:12.617Z,17.93
2022-12-11T17:02:14.242Z,19.23
2022-12-11T17:07:15.954Z,18.87
2022-12-11T17:12:18.602Z,18.53
2022-12-11T17:17:25.634Z,20.67
2022-12-11T17:22:27.579Z,21.47
2022-12-11T17:27:29.945Z,21.53
2022-12-11T17:32:31.812Z,18.90
2022-12-11T17:37:33.891Z,20.73
2022-12-11T17:42:35.453Z,20.87
2022-12-11T17:47:37.179Z,19.97
2022-12-11T17:52:43.969Z,19.40
2022-12-11T17:57:46.052Z,24.13
2022-12-11T18:02:48.902Z,21.90
2022-12-11T18:07:55.886Z,22.70
2022-12-11T18:12:59.279Z,21.63
2022-12-11T18:18:01.133Z,19.73
2022-12-11T18:23:03.500Z,20.07
2022-12-11T18:28:05.299Z,21.93
2022-12-11T18:33:07.039Z,18.33
2022-12-11T18:38:08.769Z,20.63
2022-12-11T18:43:10.331Z,18.87
2022-12-11T18:48:13.010Z,21.37
2022-12-11T18:53:15.194Z,19.27
2022-12-11T18:58:18.867Z,16.93
2022-12-11T19:03:20.437Z,21.77
2022-12-11T19:08:22.136Z,20.57
2022-12-11T19:13:23.896Z,22.57
2022-12-11T19:18:26.694Z,19.80
2022-12-11T19:23:28.504Z,18.40
2022-12-11T19:28:30.266Z,19.50
2022-12-11T19:33:31.867Z,20.27
2022-12-11T19:38:33.491Z,20.70
2022-12-11T19:43:36.330Z,16.33
2022-12-11T19:48:41.208Z,16.73
2022-12-11T19:53:44.357Z,19.03
2022-12-11T19:58:46.466Z,17.33
2022-12-11T20:03:48.012Z,21.67
2022-12-11T20:08:50.191Z,26.83
2022-12-11T20:13:54.291Z,30.17
2022-12-11T20:18:57.185Z,21.53
2022-12-11T20:23:58.830Z,20.43
2022-12-11T20:29:00.676Z,21.40
2022-12-11T20:34:03.059Z,19.43
2022-12-11T20:39:05.189Z,17.17
2022-12-11T20:44:06.712Z,17.87
2022-12-11T20:49:12.862Z,19.03
2022-12-11T20:54:14.758Z,17.83
2022-12-11T20:59:16.485Z,17.80
2022-12-11T21:04:18.053Z,16.23
2022-12-11T21:09:19.648Z,18.03
2022-12-11T21:14:21.418Z,16.13
2022-12-11T21:19:24.781Z,15.50
2022-12-11T21:24:27.923Z,18.47
2022-12-11T21:29:29.469Z,18.13
2022-12-11T21:34:31.085Z,17.17
2022-12-11T21:39:38.972Z,20.07
2022-12-11T21:45:31.509Z,17.90
2022-12-11T21:50:02.622Z,17.70
2022-12-11T21:55:05.465Z,17.83
2022-12-11T22:00:07.560Z,15.60
2022-12-11T22:05:13.577Z,21.40
2022-12-11T22:10:15.384Z,14.70
2022-12-11T22:15:16.921Z,16.80
2022-12-11T22:20:18.588Z,17.37
2022-12-11T22:25:20.235Z,18.57
2022-12-11T22:30:21.936Z,19.93
2022-12-11T22:35:27.175Z,17.23
2022-12-11T22:40:29.696Z,17.27
2022-12-11T22:45:31.262Z,19.00
2022-12-11T22:50:33.354Z,17.37
2022-12-11T22:55:38.409Z,14.67
2022-12-11T23:00:40.389Z,18.00
2022-12-11T23:05:43.355Z,14.90
2022-12-11T23:10:45.074Z,15.03
2022-12-11T23:15:46.623Z,16.93
2022-12-11T23:20:49.372Z,18.13
2022-12-11T23:25:51.526Z,17.57
2022-12-11T23:30:53.189Z,16.90
2022-12-11T23:35:54.860Z,17.43
2022-12-11T23:40:58.305Z,16.53
2022-12-11T23:46:00.039Z,18.77
2022-12-11T23:51:02.418Z,14.63
2022-12-11T23:56:07.205Z,17.20
